createdAt,value
2017-08-19T00:02:05.448Z,98747.67
2017-08-19T00:04:34.893Z,98752.05
2017-08-19T00:07:04.328Z,98749.25
2017-08-19T00:09:33.776Z,98760.38
2017-08-19T00:12:03.228Z,98767.02
2017-08-19T00:14:32.660Z,98776.35
2017-08-19T00:17:02.133Z,98776.84
2017-08-19T00:19:31.587Z,98775.30
2017-08-19T00:22:01.019Z,98777.89
2017-08-19T00:24:30.469Z,98779.64
2017-08-19T00:26:59.919Z,98782.94
2017-08-19T00:29:29.355Z,98778.95
2017-08-19T00:31:58.784Z,98768.94
2017-08-19T00:34:28.239Z,98772.95
2017-08-19T00:36:57.667Z,98772.89
2017-08-19T00:39:27.131Z,98765.75
2017-08-19T00:41:56.592Z,98749.41
2017-08-19T00:44:26.018Z,98748.41
2017-08-19T00:46:55.472Z,98742.89
2017-08-19T00:49:24.737Z,98728.61
2017-08-19T00:51:54.181Z,98734.07
2017-08-19T00:54:23.611Z,98732.94
2017-08-19T00:56:53.062Z,98736.81
2017-08-19T00:59:22.492Z,98738.87
2017-08-19T01:01:51.939Z,98730.88
2017-08-19T01:04:21.376Z,98723.41
2017-08-19T01:06:51.353Z,98719.14
2017-08-19T01:09:20.613Z,98728.82
2017-08-19T01:11:50.052Z,98734.28
2017-08-19T01:14:19.521Z,98730.54
2017-08-19T01:16:48.954Z,98723.62
2017-08-19T01:19:18.406Z,98725.08
2017-08-19T01:21:47.836Z,98729.58
2017-08-19T01:24:17.277Z,98727.67
2017-08-19T01:27:00.452Z,98723.71
2017-08-19T01:29:29.887Z,98731.06
2017-08-19T01:31:59.329Z,98729.44
2017-08-19T01:34:28.777Z,98723.62
2017-08-19T01:36:58.238Z,98716.81
2017-08-19T01:39:27.340Z,98716.73
2017-08-19T01:41:56.779Z,98719.61
2017-08-19T01:44:26.216Z,98719.61
2017-08-19T01:46:55.654Z,98726.08
2017-08-19T01:49:25.098Z,98722.19
2017-08-19T01:51:54.545Z,98714.69
2017-08-19T01:54:23.977Z,98728.34
2017-08-19T01:56:53.412Z,98728.19
2017-08-19T01:59:22.680Z,98724.84
2017-08-19T02:01:52.121Z,98732.44
2017-08-19T02:04:21.568Z,98733.63
2017-08-19T02:06:51.788Z,98743.58
2017-08-19T02:09:21.228Z,98736.80
2017-08-19T02:11:50.700Z,98740.30
2017-08-19T02:14:20.126Z,98734.84
2017-08-19T02:16:49.584Z,98731.03
2017-08-19T02:19:19.014Z,98740.23
2017-08-19T02:21:48.540Z,98735.37
2017-08-19T02:24:17.968Z,98733.11
2017-08-19T02:26:47.417Z,98738.20
2017-08-19T02:29:16.950Z,98739.58
2017-08-19T02:31:46.377Z,98732.81
2017-08-19T02:34:15.804Z,98732.89
2017-08-19T02:36:45.268Z,98734.84
2017-08-19T02:39:14.715Z,98729.68
2017-08-19T02:41:44.147Z,98732.36
2017-08-19T02:44:13.580Z,98726.22
2017-08-19T02:46:43.041Z,98725.48
2017-08-19T02:49:12.482Z,98729.02
2017-08-19T02:51:41.924Z,98725.63
2017-08-19T02:54:11.381Z,98724.34
2017-08-19T02:56:40.827Z,98730.86
2017-08-19T02:59:10.265Z,98732.56
2017-08-19T03:01:39.548Z,98730.62
2017-08-19T03:04:09.045Z,98737.59
2017-08-19T03:06:38.496Z,98735.99
2017-08-19T03:09:07.942Z,98740.22
2017-08-19T03:11:37.389Z,98737.96
2017-08-19T03:14:06.828Z,98732.63
2017-08-19T03:16:36.286Z,98735.55
2017-08-19T03:19:05.744Z,98740.38
2017-08-19T03:21:35.169Z,98734.91
2017-08-19T03:24:04.621Z,98741.41
2017-08-19T03:26:34.065Z,98750.59
2017-08-19T03:29:03.548Z,98741.83
2017-08-19T03:31:32.981Z,98746.59
2017-08-19T03:34:02.430Z,98750.13
2017-08-19T03:36:31.886Z,98750.68
2017-08-19T03:39:01.349Z,98761.59
2017-08-19T03:41:30.630Z,98756.27
2017-08-19T03:44:00.091Z,98762.72
2017-08-19T03:46:29.539Z,98767.31
2017-08-19T03:48:58.976Z,98772.67
2017-08-19T03:51:28.413Z,98780.44
2017-08-19T03:53:57.865Z,98784.26
2017-08-19T03:56:27.325Z,98784.94
2017-08-19T03:58:56.770Z,98789.27
2017-08-19T04:01:26.209Z,98796.08
2017-08-19T04:03:55.692Z,98793.21
2017-08-19T04:06:25.133Z,98793.75
2017-08-19T04:08:54.593Z,98792.20
2017-08-19T04:11:24.028Z,98791.08
2017-08-19T04:13:53.301Z,98790.53
2017-08-19T04:16:22.748Z,98793.30
2017-08-19T04:18:52.185Z,98794.21
2017-08-19T04:21:21.639Z,98795.42
2017-08-19T04:23:51.092Z,98796.89
2017-08-19T04:26:20.520Z,98800.06
2017-08-19T04:28:49.967Z,98800.24
2017-08-19T04:31:19.414Z,98796.37
2017-08-19T04:33:48.855Z,98799.52
2017-08-19T04:36:18.313Z,98797.16
2017-08-19T04:38:47.761Z,98801.11
2017-08-19T04:41:16.887Z,98796.61
2017-08-19T04:43:46.361Z,98805.47
2017-08-19T04:46:15.825Z,98806.55
2017-08-19T04:48:45.296Z,98810.06
2017-08-19T04:51:14.744Z,98815.10
2017-08-19T04:53:44.190Z,98829.64
2017-08-19T04:56:13.656Z,98837.83
2017-08-19T04:58:43.100Z,98836.73
2017-08-19T05:01:12.545Z,98838.32
2017-08-19T05:03:41.985Z,98836.13
2017-08-19T05:06:11.429Z,98838.95
2017-08-19T05:08:40.889Z,98839.72
2017-08-19T05:11:10.318Z,98839.81
2017-08-19T05:13:39.788Z,98849.22
2017-08-19T05:16:09.225Z,98854.41
2017-08-19T05:18:38.696Z,98860.59
2017-08-19T05:21:08.138Z,98859.67
2017-08-19T05:23:37.611Z,98868.05
2017-08-19T05:26:07.044Z,98866.05
2017-08-19T05:28:36.496Z,98867.88
2017-08-19T05:31:05.947Z,98868.28
2017-08-19T05:33:35.405Z,98867.22
2017-08-19T05:36:04.857Z,98870.50
2017-08-19T05:38:34.297Z,98874.73
2017-08-19T05:41:03.854Z,98873.45
2017-08-19T05:43:33.276Z,98870.19
2017-08-19T05:46:02.724Z,98871.69
2017-08-19T05:48:32.167Z,98862.05
2017-08-19T05:51:01.600Z,98863.41
2017-08-19T05:53:31.054Z,98851.37
2017-08-19T05:56:00.495Z,98861.14
2017-08-19T05:58:29.988Z,98863.67
2017-08-19T06:00:59.493Z,98866.36
2017-08-19T06:03:28.932Z,98871.95
2017-08-19T06:05:58.381Z,98874.72
2017-08-19T06:08:27.835Z,98867.53
2017-08-19T06:10:57.276Z,98866.66
2017-08-19T06:13:26.727Z,98872.15
2017-08-19T06:15:56.185Z,98856.73
2017-08-19T06:18:25.624Z,98860.97
2017-08-19T06:20:55.073Z,98865.73
2017-08-19T06:23:24.373Z,98866.09
2017-08-19T06:25:53.818Z,98858.53
2017-08-19T06:28:23.259Z,98856.22
2017-08-19T06:30:52.735Z,98847.07
2017-08-19T06:33:22.187Z,98837.66
2017-08-19T06:35:51.613Z,98842.24
2017-08-19T06:38:21.061Z,98845.50
2017-08-19T06:40:50.533Z,98850.23
2017-08-19T06:43:19.990Z,98860.97
2017-08-19T06:45:49.441Z,98854.19
2017-08-19T06:48:18.898Z,98859.78
2017-08-19T06:50:48.336Z,98871.89
2017-08-19T06:53:17.780Z,98905.28
2017-08-19T06:55:47.224Z,98916.59
2017-08-19T06:58:16.705Z,98920.55
2017-08-19T07:00:46.140Z,98916.17
2017-08-19T07:03:15.597Z,98922.81
2017-08-19T07:05:45.033Z,98931.69
2017-08-19T07:08:14.492Z,98937.22
2017-08-19T07:10:43.927Z,98937.64
2017-08-19T07:13:13.369Z,98941.60
2017-08-19T07:15:42.834Z,98953.38
2017-08-19T07:18:12.277Z,98955.78
2017-08-19T07:20:43.325Z,98963.06
2017-08-19T07:23:12.765Z,98967.88
2017-08-19T07:25:42.212Z,98965.61
2017-08-19T07:28:11.670Z,98975.62
2017-08-19T07:30:41.117Z,98979.20
2017-08-19T07:33:10.560Z,98976.25
2017-08-19T07:35:40.932Z,98980.62
2017-08-19T07:38:10.371Z,98985.08
2017-08-19T07:40:39.917Z,98984.30
2017-08-19T07:43:09.340Z,98990.45
2017-08-19T07:45:38.779Z,98989.89
2017-08-19T07:48:08.222Z,98983.61
2017-08-19T07:50:37.664Z,98988.25
2017-08-19T07:53:07.107Z,98984.39
2017-08-19T07:55:36.561Z,98981.02
2017-08-19T07:58:06.013Z,98980.62
2017-08-19T08:00:35.442Z,98985.63
2017-08-19T08:03:04.892Z,98988.50
2017-08-19T08:05:34.333Z,98988.50
2017-08-19T08:08:03.768Z,98991.63
2017-08-19T08:10:33.222Z,98992.12
2017-08-19T08:13:02.671Z,98999.09
2017-08-19T08:15:32.108Z,99001.82
2017-08-19T08:18:01.581Z,99001.41
2017-08-19T08:20:31.038Z,99000.72
2017-08-19T08:23:00.506Z,99007.36
2017-08-19T08:25:29.954Z,99002.72
2017-08-19T08:27:59.382Z,99001.67
2017-08-19T08:30:28.823Z,98989.48
2017-08-19T08:32:58.257Z,98988.66
2017-08-19T08:35:27.708Z,98979.98
2017-08-19T08:37:57.149Z,98961.11
2017-08-19T08:40:26.634Z,98956.08
2017-08-19T08:42:56.069Z,98955.55
2017-08-19T08:45:25.536Z,98966.22
2017-08-19T08:47:54.983Z,98965.21
2017-08-19T08:50:24.467Z,98966.72
2017-08-19T08:52:53.927Z,98971.25
2017-08-19T08:55:24.148Z,98966.25
2017-08-19T08:57:53.582Z,98954.73
2017-08-19T09:00:22.737Z,98942.97
2017-08-19T09:02:52.008Z,98932.00
2017-08-19T09:05:21.486Z,98894.02
2017-08-19T09:07:50.929Z,98918.48
2017-08-19T09:10:20.433Z,98935.53
2017-08-19T09:12:49.893Z,98943.44
2017-08-19T09:15:19.380Z,98960.89
2017-08-19T09:17:48.824Z,98948.30
2017-08-19T09:20:18.300Z,98956.84
2017-08-19T09:22:47.730Z,98952.84
2017-08-19T09:25:17.224Z,98960.94
2017-08-19T09:27:46.678Z,98960.50
2017-08-19T09:30:16.154Z,98962.92
2017-08-19T09:32:45.605Z,98965.83
2017-08-19T09:35:15.089Z,98959.86
2017-08-19T09:37:44.518Z,98965.31
2017-08-19T09:40:14.012Z,98977.72
2017-08-19T09:42:43.456Z,98974.23
2017-08-19T09:45:13.045Z,98972.86
2017-08-19T09:47:42.476Z,98975.78
2017-08-19T09:50:11.930Z,98960.83
2017-08-19T09:52:41.373Z,98958.92
2017-08-19T09:55:10.683Z,98967.69
2017-08-19T09:57:40.126Z,98970.11
2017-08-19T10:00:09.626Z,98963.48
2017-08-19T10:02:38.883Z,98971.75
2017-08-19T10:05:08.350Z,98976.36
2017-08-19T10:07:41.669Z,98969.84
2017-08-19T10:10:22.299Z,98964.47
2017-08-19T10:12:51.725Z,98967.17
2017-08-19T10:15:21.206Z,98959.66
2017-08-19T10:17:50.666Z,98965.05
2017-08-19T10:20:20.199Z,98975.00
2017-08-19T10:22:49.669Z,98968.89
2017-08-19T10:25:19.142Z,98963.05
2017-08-19T10:27:48.606Z,98965.77
2017-08-19T10:30:18.075Z,98966.97
2017-08-19T10:32:47.549Z,98968.72
2017-08-19T10:35:17.050Z,98975.06
2017-08-19T10:37:46.568Z,98979.80
2017-08-19T10:40:16.085Z,98984.45
2017-08-19T10:42:45.533Z,98987.69
2017-08-19T10:45:15.016Z,98991.55
2017-08-19T10:47:44.445Z,98984.57
2017-08-19T10:50:13.926Z,98984.26
2017-08-19T10:55:22.043Z,98982.21
2017-08-19T10:57:51.495Z,98990.58
2017-08-19T11:00:21.007Z,98985.91
2017-08-19T11:02:50.476Z,98979.77
2017-08-19T11:05:20.019Z,98981.59
2017-08-19T11:07:49.462Z,98982.70
2017-08-19T11:10:18.962Z,98985.64
2017-08-19T11:12:48.390Z,98992.89
2017-08-19T11:15:17.866Z,98999.61
2017-08-19T11:17:47.414Z,98999.45
2017-08-19T11:20:18.558Z,99006.14
2017-08-19T11:22:49.208Z,99012.02
2017-08-19T11:25:20.543Z,99021.23
2017-08-19T11:27:50.840Z,99029.28
2017-08-19T11:30:20.908Z,99019.77
2017-08-19T11:32:52.561Z,99027.02
2017-08-19T11:35:23.193Z,99039.77
2017-08-19T11:37:52.844Z,99043.65
2017-08-19T11:40:22.321Z,99039.41
2017-08-19T11:42:51.983Z,99046.34
2017-08-19T11:45:21.574Z,99050.53
2017-08-19T11:47:51.004Z,99043.78
2017-08-19T11:50:20.784Z,99040.77
2017-08-19T11:52:50.516Z,99048.37
2017-08-19T11:55:20.001Z,99051.15
2017-08-19T11:57:49.502Z,99053.36
2017-08-19T12:00:20.254Z,99051.16
2017-08-19T12:02:49.856Z,99052.57
2017-08-19T12:05:19.335Z,99047.48
2017-08-19T12:07:48.780Z,99043.30
2017-08-19T12:10:18.304Z,99040.74
2017-08-19T12:12:47.727Z,99023.34
2017-08-19T12:15:17.264Z,99008.97
2017-08-19T12:17:46.691Z,98999.62
2017-08-19T12:20:16.179Z,98997.11
2017-08-19T12:22:45.635Z,98984.92
2017-08-19T12:25:15.142Z,98978.86
2017-08-19T12:27:44.566Z,98979.38
2017-08-19T12:30:14.046Z,98982.61
2017-08-19T12:32:43.508Z,98995.09
2017-08-19T12:35:12.987Z,98989.13
2017-08-19T12:37:42.512Z,98985.45
2017-08-19T12:40:11.990Z,98983.59
2017-08-19T12:42:41.438Z,98984.77
2017-08-19T12:45:10.919Z,98992.14
2017-08-19T12:47:40.370Z,99003.15
2017-08-19T12:50:09.858Z,99005.03
2017-08-19T12:52:39.304Z,99014.64
2017-08-19T12:55:13.602Z,99015.11
2017-08-19T12:57:43.040Z,99002.41
2017-08-19T13:00:12.535Z,99007.16
2017-08-19T13:02:41.976Z,99009.78
2017-08-19T13:05:11.459Z,99002.33
2017-08-19T13:07:40.920Z,99005.35
2017-08-19T13:10:10.395Z,98992.48
2017-08-19T13:12:39.851Z,98989.34
2017-08-19T13:15:09.403Z,99000.02
2017-08-19T13:17:38.869Z,99004.52
2017-08-19T13:20:08.407Z,99008.05
2017-08-19T13:22:37.890Z,99009.45
2017-08-19T13:25:07.414Z,99008.13
2017-08-19T13:27:36.887Z,98999.84
2017-08-19T13:30:06.406Z,99010.27
2017-08-19T13:32:35.979Z,99010.58
2017-08-19T13:35:05.455Z,99012.41
2017-08-19T13:37:34.941Z,99008.70
2017-08-19T13:40:04.450Z,99012.17
2017-08-19T13:42:33.881Z,99024.44
2017-08-19T13:45:03.373Z,99030.23
2017-08-19T13:47:32.810Z,99038.66
2017-08-19T13:50:02.318Z,99042.25
2017-08-19T13:52:31.762Z,99040.50
2017-08-19T13:55:01.200Z,99036.98
2017-08-19T13:57:30.733Z,99038.52
2017-08-19T14:00:00.198Z,99030.48
2017-08-19T14:02:29.648Z,99036.83
2017-08-19T14:04:59.096Z,99033.73
2017-08-19T14:07:28.611Z,99040.69
2017-08-19T14:09:58.056Z,99042.48
2017-08-19T14:12:27.493Z,99042.94
2017-08-19T14:14:56.940Z,99035.06
2017-08-19T14:17:26.429Z,99038.05
2017-08-19T14:19:58.039Z,99035.11
2017-08-19T14:22:29.422Z,99026.77
2017-08-19T14:24:58.863Z,99024.39
2017-08-19T14:27:28.301Z,99034.90
2017-08-19T14:29:57.748Z,99027.88
2017-08-19T14:32:27.246Z,99021.11
2017-08-19T14:34:56.706Z,99012.55
2017-08-19T14:37:26.152Z,99011.97
2017-08-19T14:39:55.608Z,99016.27
2017-08-19T14:42:25.053Z,99008.77
2017-08-19T14:44:54.502Z,99015.83
2017-08-19T14:47:24.057Z,99013.12
2017-08-19T14:49:53.482Z,99009.74
2017-08-19T14:52:22.937Z,99013.14
2017-08-19T14:54:52.390Z,99014.88
2017-08-19T14:57:21.848Z,99003.23
2017-08-19T14:59:51.315Z,99003.02
2017-08-19T15:02:20.756Z,98995.92
2017-08-19T15:04:50.196Z,99001.58
2017-08-19T15:07:19.668Z,99007.19
2017-08-19T15:09:49.089Z,99003.45
2017-08-19T15:12:18.554Z,99015.48
2017-08-19T15:14:47.996Z,99019.36
2017-08-19T15:17:17.433Z,99032.55
2017-08-19T15:19:46.886Z,99036.43
2017-08-19T15:22:16.336Z,99048.17
2017-08-19T15:24:45.769Z,99057.47
2017-08-19T15:27:15.215Z,99059.91
2017-08-19T15:29:44.681Z,99057.63
2017-08-19T15:32:14.142Z,99064.09
2017-08-19T15:34:43.649Z,99065.72
2017-08-19T15:37:13.089Z,99062.95
2017-08-19T15:39:42.532Z,99059.59
2017-08-19T15:42:11.988Z,99054.86
2017-08-19T15:44:41.441Z,99056.08
2017-08-19T15:47:10.902Z,99047.20
2017-08-19T15:49:40.342Z,99042.16
2017-08-19T15:52:09.882Z,99047.57
2017-08-19T15:54:39.317Z,99041.47
2017-08-19T15:57:08.761Z,99039.16
2017-08-19T15:59:38.210Z,99045.03
2017-08-19T16:02:07.656Z,99036.56
2017-08-19T16:04:37.104Z,99033.70
2017-08-19T16:07:06.562Z,99036.91
2017-08-19T16:09:36.017Z,99029.36
2017-08-19T16:12:05.506Z,99034.41
2017-08-19T16:14:34.975Z,99026.05
2017-08-19T16:17:04.443Z,99028.91
2017-08-19T16:19:33.873Z,99021.73
2017-08-19T16:22:03.332Z,99023.09
2017-08-19T16:24:32.868Z,99023.91
2017-08-19T16:27:02.343Z,99033.50
2017-08-19T16:29:31.801Z,99037.08
2017-08-19T16:32:01.281Z,99029.62
2017-08-19T16:34:30.721Z,99033.92
2017-08-19T16:37:00.167Z,99036.09
2017-08-19T16:39:29.633Z,99041.19
2017-08-19T16:41:59.210Z,99038.48
2017-08-19T16:44:28.661Z,99048.37
2017-08-19T16:46:58.117Z,99054.95
2017-08-19T16:49:27.569Z,99068.59
2017-08-19T16:51:57.002Z,99062.12
2017-08-19T16:54:27.325Z,99060.58
2017-08-19T16:56:56.758Z,99071.18
2017-08-19T16:59:26.241Z,99085.09
2017-08-19T17:01:55.710Z,99087.13
2017-08-19T17:04:25.144Z,99079.55
2017-08-19T17:06:54.608Z,99084.19
2017-08-19T17:09:24.068Z,99093.22
2017-08-19T17:11:53.509Z,99079.73
2017-08-19T17:14:22.958Z,99069.56
2017-08-19T17:16:52.388Z,99057.43
2017-08-19T17:19:21.834Z,99067.27
2017-08-19T17:21:51.290Z,99076.27
2017-08-19T17:24:20.723Z,99067.56
2017-08-19T17:26:50.183Z,99060.78
2017-08-19T17:29:19.629Z,99071.82
2017-08-19T17:31:49.083Z,99059.58
2017-08-19T17:34:18.538Z,99059.03
2017-08-19T17:36:48.101Z,99058.66
2017-08-19T17:39:17.557Z,99064.14
2017-08-19T17:41:47.016Z,99066.31
2017-08-19T17:44:16.474Z,99073.66
2017-08-19T17:46:45.916Z,99067.42
2017-08-19T17:49:15.353Z,99064.43
2017-08-19T17:51:44.816Z,99063.34
2017-08-19T17:54:14.296Z,99071.24
2017-08-19T17:56:43.740Z,99074.38
2017-08-19T17:59:13.219Z,99070.53
2017-08-19T18:01:42.697Z,99077.19
2017-08-19T18:04:12.145Z,99078.00
2017-08-19T18:06:41.575Z,99075.91
2017-08-19T18:09:11.053Z,99078.39
2017-08-19T18:11:40.496Z,99084.08
2017-08-19T18:14:09.953Z,99084.52
2017-08-19T18:16:39.402Z,99091.88
2017-08-19T18:19:08.873Z,99098.12
2017-08-19T18:21:38.311Z,99098.12
2017-08-19T18:24:07.775Z,99092.31
2017-08-19T18:26:37.250Z,99089.83
2017-08-19T18:29:06.675Z,99083.86
2017-08-19T18:31:36.153Z,99093.80
2017-08-19T18:34:06.484Z,99098.73
2017-08-19T18:36:36.007Z,99105.27
2017-08-19T18:39:04.885Z,99113.16
2017-08-19T18:41:34.321Z,99123.97
2017-08-19T18:44:03.774Z,99140.46
2017-08-19T18:46:33.217Z,99143.33
2017-08-19T18:49:02.685Z,99139.01
2017-08-19T18:51:32.142Z,99145.41
2017-08-19T18:54:01.632Z,99155.78
2017-08-19T18:56:31.075Z,99146.10
2017-08-19T18:59:00.511Z,99157.42
2017-08-19T19:01:29.960Z,99155.94
2017-08-19T19:03:59.417Z,99153.08
2017-08-19T19:06:28.955Z,99159.23
2017-08-19T19:08:58.376Z,99159.95
2017-08-19T19:11:27.837Z,99165.14
2017-08-19T19:13:57.297Z,99163.91
2017-08-19T19:16:26.749Z,99168.28
2017-08-19T19:18:56.201Z,99166.39
2017-08-19T19:21:25.632Z,99166.09
2017-08-19T19:23:55.082Z,99161.50
2017-08-19T19:26:24.534Z,99160.04
2017-08-19T19:28:53.964Z,99156.64
2017-08-19T19:31:23.408Z,99153.64
2017-08-19T19:33:52.875Z,99145.35
2017-08-19T19:36:22.354Z,99136.25
2017-08-19T19:38:51.808Z,99123.44
2017-08-19T19:41:21.272Z,99120.17
2017-08-19T19:43:50.720Z,99129.44
2017-08-19T19:46:20.168Z,99129.71
2017-08-19T19:48:49.709Z,99128.20
2017-08-19T19:51:19.149Z,99126.34
2017-08-19T19:53:48.605Z,99132.87
2017-08-19T19:56:18.057Z,99135.99
2017-08-19T19:58:47.527Z,99142.53
2017-08-19T20:01:16.968Z,99141.84
2017-08-19T20:03:46.425Z,99127.96
2017-08-19T20:06:15.885Z,99120.36
2017-08-19T20:08:45.346Z,99103.10
2017-08-19T20:11:14.785Z,99110.16
2017-08-19T20:13:44.247Z,99108.83
2017-08-19T20:16:13.690Z,99118.73
2017-08-19T20:18:43.170Z,99117.80
2017-08-19T20:21:12.624Z,99112.20
2017-08-19T20:23:42.114Z,99113.70
2017-08-19T20:26:11.561Z,99111.68
2017-08-19T20:28:41.026Z,99125.41
2017-08-19T20:31:11.020Z,99130.44
2017-08-19T20:33:40.484Z,99129.74
2017-08-19T20:36:09.924Z,99125.14
2017-08-19T20:38:39.397Z,99132.75
2017-08-19T20:41:08.664Z,99136.42
2017-08-19T20:43:38.105Z,99140.91
2017-08-19T20:46:07.564Z,99136.95
2017-08-19T20:48:37.012Z,99136.42
2017-08-19T20:51:06.466Z,99134.66
2017-08-19T20:53:35.937Z,99113.72
2017-08-19T20:56:05.382Z,99110.85
2017-08-19T20:58:34.816Z,99119.14
2017-08-19T21:01:04.276Z,99131.94
2017-08-19T21:03:34.672Z,99140.08
2017-08-19T21:06:04.109Z,99139.80
2017-08-19T21:08:33.561Z,99136.27
2017-08-19T21:11:03.015Z,99136.69
2017-08-19T21:13:32.482Z,99136.41
2017-08-19T21:16:01.936Z,99133.81
2017-08-19T21:18:31.372Z,99149.88
2017-08-19T21:21:00.829Z,99154.08
2017-08-19T21:23:30.326Z,99142.80
2017-08-19T21:25:59.760Z,99138.57
2017-08-19T21:28:29.235Z,99136.68
2017-08-19T21:30:58.681Z,99136.53
2017-08-19T21:33:28.171Z,99129.08
2017-08-19T21:35:57.615Z,99124.30
2017-08-19T21:38:27.058Z,99118.72
2017-08-19T21:40:56.501Z,99110.98
2017-08-19T21:43:25.962Z,99099.86
2017-08-19T21:45:55.411Z,99098.06
2017-08-19T21:48:24.828Z,99100.00
2017-08-19T21:50:54.302Z,99099.72
2017-08-19T21:53:24.614Z,99093.18
2017-08-19T21:55:54.069Z,99091.83
2017-08-19T21:58:23.521Z,99094.55
2017-08-19T22:00:52.385Z,99090.45
2017-08-19T22:03:21.649Z,99088.03
2017-08-19T22:08:29.662Z,99098.20
2017-08-19T22:10:59.113Z,99086.80
2017-08-19T22:13:28.556Z,99078.52
2017-08-19T22:15:58.009Z,99080.81
2017-08-19T22:18:27.476Z,99078.63
2017-08-19T22:20:56.900Z,99081.91
2017-08-19T22:23:26.353Z,99082.31
2017-08-19T22:25:55.801Z,99094.56
2017-08-19T22:28:25.264Z,99083.94
2017-08-19T22:30:54.689Z,99095.38
2017-08-19T22:33:24.155Z,99089.65
2017-08-19T22:35:53.601Z,99090.59
2017-08-19T22:38:23.053Z,99094.13
2017-08-19T22:40:52.504Z,99106.38
2017-08-19T22:43:21.954Z,99112.22
2017-08-19T22:45:51.405Z,99114.65
2017-08-19T22:48:20.845Z,99119.95
2017-08-19T22:50:50.323Z,99108.55
2017-08-19T22:53:19.772Z,99106.23
2017-08-19T22:55:49.213Z,99105.55
2017-08-19T22:58:18.644Z,99111.95
2017-08-19T23:00:48.111Z,99121.34
2017-08-19T23:03:17.385Z,99128.92
2017-08-19T23:05:46.809Z,99126.22
2017-08-19T23:08:16.314Z,99123.09
2017-08-19T23:10:45.756Z,99116.42
2017-08-19T23:13:15.217Z,99116.29
2017-08-19T23:15:44.668Z,99112.89
2017-08-19T23:18:14.126Z,99105.81
2017-08-19T23:20:43.756Z,99103.67
2017-08-19T23:23:13.228Z,99107.88
2017-08-19T23:25:42.675Z,99118.20
2017-08-19T23:28:12.140Z,99121.33
2017-08-19T23:30:41.589Z,99123.38
2017-08-19T23:33:11.039Z,99114.79
2017-08-19T23:35:40.488Z,99114.66
2017-08-19T23:38:09.928Z,99105.55
2017-08-19T23:40:39.393Z,99102.02
2017-08-19T23:43:08.823Z,99099.31
2017-08-19T23:45:38.271Z,99096.60
2017-08-19T23:48:07.709Z,99089.12
2017-08-19T23:50:37.149Z,99088.45
2017-08-19T23:53:06.605Z,99092.91
2017-08-19T23:55:36.052Z,99086.27
2017-08-19T23:58:05.493Z,99083.39
